Time;durP1;ratioP1;P1;durP2;ratioP2;P2;SDS_P1;SDS_P2;PMS_P1;PMS_P2;Temp;Humidity;BMP_temperature;BMP_pressure;BME280_temperature;BME280_humidity;BME280_pressure;Samples;Min_cycle;Max_cycle;Signal;HPM_P1;HPM_P2
2022/09/25 00:00:50;;;;;;;;;;;12.90;99.90;;;;;;5076935;28;19924;-86
2022/09/25 00:03:18;;;;;;;;;;;12.90;99.90;;;;;;5101850;28;20322;-86
2022/09/25 00:05:45;;;;;;;;;;;12.90;99.90;;;;;;5081734;28;19924;-85
2022/09/25 00:08:13;;;;;;;;;;;12.90;99.90;;;;;;5078199;28;20224;-86
2022/09/25 00:10:40;;;;;;;;;;;12.90;99.90;;;;;;5075765;28;19979;-87
2022/09/25 00:13:07;;;;;;;;;;;12.90;99.90;;;;;;5078682;28;19953;-86
2022/09/25 00:15:34;;;;;;;;;;;12.80;99.90;;;;;;5080933;28;19928;-87
2022/09/25 00:18:01;;;;;;;;;;;12.90;99.90;;;;;;5098695;28;19924;-87
2022/09/25 00:20:28;;;;;;;;;;;12.80;99.90;;;;;;5080535;28;19938;-86
2022/09/25 00:22:55;;;;;;;;;;;12.80;99.90;;;;;;5115833;27;19924;-86
2022/09/25 00:25:26;;;;;;;;;;;12.80;99.90;;;;;;5075410;28;19928;-86
2022/09/25 00:27:53;;;;;;;;;;;12.80;99.90;;;;;;5098718;28;20344;-87
2022/09/25 00:30:19;;;;;;;;;;;12.80;99.90;;;;;;5091431;28;19924;-86
2022/09/25 00:32:46;;;;;;;;;;;12.80;99.90;;;;;;5082040;28;20318;-85
2022/09/25 00:35:13;;;;;;;;;;;12.80;99.90;;;;;;5098345;28;19978;-87
2022/09/25 00:37:41;;;;;;;;;;;12.80;99.90;;;;;;5094236;28;19974;-86
2022/09/25 00:40:08;;;;;;;;;;;12.90;99.90;;;;;;5078464;28;19931;-87
2022/09/25 00:42:39;;;;;;;;;;;12.80;99.90;;;;;;5093055;28;19989;-86
2022/09/25 00:45:06;;;;;;;;;;;12.80;99.90;;;;;;5095849;28;19928;-87
2022/09/25 00:47:42;;;;;;;;;;;12.80;99.90;;;;;;5095008;28;19928;-86
2022/09/25 00:50:16;;;;;;;;;;;12.80;99.90;;;;;;5069975;28;19924;-87
2022/09/25 00:52:45;;;;;;;;;;;12.80;99.90;;;;;;5079657;28;20429;-88
2022/09/25 00:55:13;;;;;;;;;;;12.70;99.90;;;;;;5074797;28;19924;-86
2022/09/25 00:57:40;;;;;;;;;;;12.70;99.90;;;;;;5096978;28;19924;-86
2022/09/25 01:00:09;;;;;;;;;;;12.80;99.90;;;;;;5074871;28;19924;-86
2022/09/25 01:02:38;;;;;;;;;;;12.80;99.90;;;;;;5096467;28;20014;-86
2022/09/25 01:05:06;;;;;;;;;;;12.70;99.90;;;;;;5110726;28;20023;-85
2022/09/25 01:07:34;;;;;;;;;;;12.70;99.90;;;;;;5086953;28;19932;-86
2022/09/25 01:10:05;;;;;;;;;;;12.70;99.90;;;;;;5075779;28;20454;-86
2022/09/25 01:12:33;;;;;;;;;;;12.70;99.90;;;;;;5091007;28;19932;-87
2022/09/25 01:15:00;;;;;;;;;;;12.70;99.90;;;;;;5078182;28;19955;-86
2022/09/25 01:17:32;;;;;;;;;;;12.70;99.90;;;;;;5097317;28;20017;-87
2022/09/25 01:20:03;;;;;;;;;;;12.70;99.90;;;;;;5074589;28;19935;-87
2022/09/25 01:22:37;;;;;;;;;;;12.70;99.90;;;;;;5105313;28;19924;-86
2022/09/25 01:25:10;;;;;;;;;;;12.70;99.90;;;;;;5094305;28;20229;-86
2022/09/25 01:27:42;;;;;;;;;;;12.70;99.90;;;;;;5082281;28;19931;-86
2022/09/25 01:30:13;;;;;;;;;;;12.70;99.90;;;;;;5098907;28;20364;-86
2022/09/25 01:32:58;;;;;;;;;;;12.70;99.90;;;;;;5084696;28;19924;-87
2022/09/25 01:35:32;;;;;;;;;;;12.70;99.90;;;;;;5072621;28;19932;-87
2022/09/25 01:38:03;;;;;;;;;;;12.70;99.90;;;;;;5091466;28;19924;-87
2022/09/25 01:40:33;;;;;;;;;;;12.80;99.90;;;;;;5076815;28;19953;-85
2022/09/25 01:43:04;;;;;;;;;;;12.70;99.90;;;;;;5080573;28;19924;-87
2022/09/25 01:45:36;;;;;;;;;;;12.70;99.90;;;;;;5098314;28;19990;-87
2022/09/25 01:48:05;;;;;;;;;;;12.70;99.90;;;;;;5093262;28;19924;-86
2022/09/25 01:50:34;;;;;;;;;;;12.70;99.90;;;;;;5099832;28;19927;-86
2022/09/25 01:53:04;;;;;;;;;;;12.70;99.90;;;;;;5103385;28;19965;-86
2022/09/25 01:55:31;;;;;;;;;;;12.70;99.90;;;;;;5094989;28;20015;-86
2022/09/25 01:58:02;;;;;;;;;;;12.70;99.90;;;;;;5091941;28;19939;-86
2022/09/25 02:00:29;;;;;;;;;;;12.70;99.90;;;;;;5094686;28;19924;-87
2022/09/25 02:03:00;;;;;;;;;;;12.70;99.90;;;;;;5097028;28;19924;-86
2022/09/25 02:05:30;;;;;;;;;;;12.70;99.90;;;;;;5121833;27;19923;-87
2022/09/25 02:08:00;;;;;;;;;;;12.70;99.90;;;;;;5099177;28;19924;-86
2022/09/25 02:10:33;;;;;;;;;;;12.70;99.90;;;;;;5078604;28;19928;-86
2022/09/25 02:13:04;;;;;;;;;;;12.60;99.90;;;;;;5076430;28;19932;-86
2022/09/25 02:15:34;;;;;;;;;;;12.60;99.90;;;;;;5086964;28;20839;-87
2022/09/25 02:20:53;;;;;;;;;;;12.60;99.90;;;;;;5096026;28;19946;-86
2022/09/25 02:23:22;;;;;;;;;;;12.60;99.90;;;;;;5085422;28;19991;-86
2022/09/25 02:25:55;;;;;;;;;;;12.60;99.90;;;;;;5102850;28;20304;-86
2022/09/25 02:28:22;;;;;;;;;;;12.60;99.90;;;;;;5098529;28;19935;-87
2022/09/25 02:30:49;;;;;;;;;;;12.60;99.90;;;;;;5099876;28;20423;-87
2022/09/25 02:33:17;;;;;;;;;;;12.60;99.90;;;;;;5102322;28;19978;-87
2022/09/25 02:35:44;;;;;;;;;;;12.60;99.90;;;;;;5080867;28;20053;-86
2022/09/25 02:38:11;;;;;;;;;;;12.60;99.90;;;;;;5085086;28;20356;-86
2022/09/25 02:40:41;;;;;;;;;;;12.60;99.90;;;;;;5081424;28;20179;-87
2022/09/25 02:43:14;;;;;;;;;;;12.60;99.90;;;;;;5097437;28;19924;-86
2022/09/25 02:45:45;;;;;;;;;;;12.60;99.90;;;;;;5090749;28;19956;-85
2022/09/25 02:48:15;;;;;;;;;;;12.60;99.90;;;;;;5099568;28;19952;-86
2022/09/25 02:50:47;;;;;;;;;;;12.60;99.90;;;;;;5098968;28;19928;-87
2022/09/25 02:53:16;;;;;;;;;;;12.60;99.90;;;;;;5096447;28;19924;-86
2022/09/25 02:55:45;;;;;;;;;;;12.60;99.90;;;;;;5082165;28;19939;-87
2022/09/25 02:58:14;;;;;;;;;;;12.60;99.90;;;;;;5099761;28;19924;-87
2022/09/25 03:00:43;;;;;;;;;;;12.50;99.90;;;;;;5093671;28;19943;-86
2022/09/25 03:03:13;;;;;;;;;;;12.50;99.90;;;;;;5082970;28;19932;-86
2022/09/25 03:05:40;;;;;;;;;;;12.50;99.90;;;;;;5098172;28;19946;-86
2022/09/25 03:10:53;;;;;;;;;;;12.50;99.90;;;;;;5095089;28;20048;-87
2022/09/25 03:13:22;;;;;;;;;;;12.50;99.90;;;;;;5095331;28;20019;-86
2022/09/25 03:15:50;;;;;;;;;;;12.50;99.90;;;;;;5078769;28;20467;-86
2022/09/25 03:18:17;;;;;;;;;;;12.50;99.90;;;;;;5074850;28;19932;-86
2022/09/25 03:20:44;;;;;;;;;;;12.50;99.90;;;;;;5078599;28;20340;-86
2022/09/25 03:23:13;;;;;;;;;;;12.50;99.90;;;;;;5096892;28;19977;-87
2022/09/25 03:25:39;;;;;;;;;;;12.60;99.90;;;;;;5112129;27;20015;-86
2022/09/25 03:28:09;;;;;;;;;;;12.50;99.90;;;;;;5077720;28;19973;-86
2022/09/25 03:30:37;;;;;;;;;;;12.50;99.90;;;;;;5096426;28;19924;-86
2022/09/25 03:33:04;;;;;;;;;;;12.50;99.90;;;;;;5084022;28;20397;-87
2022/09/25 03:35:30;;;;;;;;;;;12.50;99.90;;;;;;5078558;28;19963;-86
2022/09/25 03:37:58;;;;;;;;;;;12.50;99.90;;;;;;5097355;28;19962;-86
2022/09/25 03:40:26;;;;;;;;;;;12.50;99.90;;;;;;5091559;28;19924;-86
2022/09/25 03:42:53;;;;;;;;;;;12.50;99.90;;;;;;5092059;28;19928;-86
2022/09/25 03:45:19;;;;;;;;;;;12.50;99.90;;;;;;5100074;28;19930;-87
2022/09/25 03:47:46;;;;;;;;;;;12.50;99.90;;;;;;5074733;28;19929;-86
2022/09/25 03:50:13;;;;;;;;;;;12.50;99.90;;;;;;5075320;28;19950;-87
2022/09/25 03:52:40;;;;;;;;;;;12.50;99.90;;;;;;5094375;28;20546;-86
2022/09/25 03:55:07;;;;;;;;;;;12.50;99.90;;;;;;5094465;28;19954;-86
2022/09/25 03:57:35;;;;;;;;;;;12.50;99.90;;;;;;5097766;28;19959;-85
2022/09/25 04:00:02;;;;;;;;;;;12.40;99.90;;;;;;5093455;28;19963;-86
2022/09/25 04:02:38;;;;;;;;;;;12.40;99.90;;;;;;5094156;28;20404;-86
2022/09/25 04:05:06;;;;;;;;;;;12.40;99.90;;;;;;5076674;28;19977;-86
2022/09/25 04:07:33;;;;;;;;;;;12.40;99.90;;;;;;5098694;28;19955;-86
2022/09/25 04:10:00;;;;;;;;;;;12.40;99.90;;;;;;5089771;28;19928;-86
2022/09/25 04:12:27;;;;;;;;;;;12.40;99.90;;;;;;5093106;28;19970;-86
2022/09/25 04:14:55;;;;;;;;;;;12.40;99.90;;;;;;5078324;28;19969;-85
2022/09/25 04:17:22;;;;;;;;;;;12.40;99.90;;;;;;5096436;28;19924;-87
2022/09/25 04:19:49;;;;;;;;;;;12.40;99.90;;;;;;5088480;28;19932;-86
2022/09/25 04:22:16;;;;;;;;;;;12.40;99.90;;;;;;5095245;28;20015;-86
2022/09/25 04:24:48;;;;;;;;;;;12.40;99.90;;;;;;5104424;28;20370;-86
2022/09/25 04:27:17;;;;;;;;;;;12.40;99.90;;;;;;5072882;28;22140;-86
2022/09/25 04:29:44;;;;;;;;;;;12.40;99.90;;;;;;5077898;28;19924;-86
2022/09/25 04:34:57;;;;;;;;;;;12.50;99.90;;;;;;5080247;28;19932;-85
2022/09/25 04:37:25;;;;;;;;;;;12.40;99.90;;;;;;5080391;28;19977;-86
2022/09/25 04:39:52;;;;;;;;;;;12.40;99.90;;;;;;5077829;28;19933;-87
2022/09/25 04:42:23;;;;;;;;;;;12.40;99.90;;;;;;5088370;28;20559;-85
2022/09/25 04:44:51;;;;;;;;;;;12.40;99.90;;;;;;5075028;28;20394;-86
2022/09/25 04:47:19;;;;;;;;;;;12.40;99.90;;;;;;5080027;28;19965;-86
2022/09/25 04:49:46;;;;;;;;;;;12.40;99.90;;;;;;5096278;28;19928;-86
2022/09/25 04:52:14;;;;;;;;;;;12.40;99.90;;;;;;5076301;28;20349;-85
2022/09/25 04:54:41;;;;;;;;;;;12.40;99.90;;;;;;5078110;28;19924;-85
2022/09/25 04:57:07;;;;;;;;;;;12.40;99.90;;;;;;5097132;28;19981;-86
2022/09/25 04:59:34;;;;;;;;;;;12.40;99.90;;;;;;5077542;28;20400;-86
2022/09/25 05:02:01;;;;;;;;;;;12.40;99.90;;;;;;5090375;28;19962;-86
2022/09/25 05:04:29;;;;;;;;;;;12.30;99.90;;;;;;5078455;28;20027;-86
2022/09/25 05:06:56;;;;;;;;;;;12.30;99.90;;;;;;5076989;28;20318;-85
2022/09/25 05:09:23;;;;;;;;;;;12.30;99.90;;;;;;5100962;28;19930;-87
2022/09/25 05:11:50;;;;;;;;;;;12.30;99.90;;;;;;5092648;28;20378;-86
2022/09/25 05:14:16;;;;;;;;;;;12.30;99.90;;;;;;5078950;28;20386;-86
2022/09/25 05:16:45;;;;;;;;;;;12.30;99.90;;;;;;5072741;28;20018;-86
2022/09/25 05:19:12;;;;;;;;;;;12.30;99.90;;;;;;5082756;28;20014;-86
2022/09/25 05:21:40;;;;;;;;;;;12.30;99.90;;;;;;5078794;28;19928;-86
2022/09/25 05:24:08;;;;;;;;;;;12.30;99.90;;;;;;5098304;28;20015;-86
2022/09/25 05:26:35;;;;;;;;;;;12.30;99.90;;;;;;5078557;28;19924;-86
2022/09/25 05:29:02;;;;;;;;;;;12.30;99.90;;;;;;5082068;28;20051;-86
2022/09/25 05:31:29;;;;;;;;;;;12.30;99.90;;;;;;5077088;28;19935;-86
2022/09/25 05:33:55;;;;;;;;;;;12.30;99.90;;;;;;5076714;28;20298;-85
2022/09/25 05:36:22;;;;;;;;;;;12.30;99.90;;;;;;5088552;28;19971;-87
2022/09/25 05:38:51;;;;;;;;;;;12.30;99.90;;;;;;5095067;28;19928;-85
2022/09/25 05:41:18;;;;;;;;;;;12.30;99.90;;;;;;5081318;28;19924;-86
2022/09/25 05:43:46;;;;;;;;;;;12.30;99.90;;;;;;5091489;28;20433;-86
2022/09/25 05:46:13;;;;;;;;;;;12.30;99.90;;;;;;5089571;28;20390;-86
2022/09/25 05:48:40;;;;;;;;;;;12.30;99.90;;;;;;5089896;28;22010;-85
2022/09/25 05:51:07;;;;;;;;;;;12.20;99.90;;;;;;5084353;28;19977;-86
2022/09/25 05:53:34;;;;;;;;;;;12.30;99.90;;;;;;5085101;28;20283;-85
2022/09/25 05:56:04;;;;;;;;;;;12.20;99.90;;;;;;5083574;28;19974;-86
2022/09/25 05:58:32;;;;;;;;;;;12.30;99.90;;;;;;5066293;28;19924;-85
2022/09/25 06:01:00;;;;;;;;;;;12.20;99.90;;;;;;5073996;28;19927;-89
2022/09/25 06:03:28;;;;;;;;;;;12.20;99.90;;;;;;5080385;28;20338;-80
2022/09/25 06:05:55;;;;;;;;;;;12.20;99.90;;;;;;5065324;28;19933;-81
2022/09/25 06:08:22;;;;;;;;;;;12.20;99.90;;;;;;5073338;28;19963;-85
2022/09/25 06:10:51;;;;;;;;;;;12.20;99.90;;;;;;5068739;28;19960;-81
2022/09/25 06:13:19;;;;;;;;;;;12.20;99.90;;;;;;5096597;27;19966;-81
2022/09/25 06:15:49;;;;;;;;;;;12.20;99.90;;;;;;5072975;28;19961;-89
2022/09/25 06:18:16;;;;;;;;;;;12.20;99.90;;;;;;5082698;28;20312;-82
2022/09/25 06:20:43;;;;;;;;;;;12.20;99.90;;;;;;5089381;28;20169;-83
2022/09/25 06:23:10;;;;;;;;;;;12.20;99.90;;;;;;5067054;28;19959;-88
2022/09/25 06:25:37;;;;;;;;;;;12.20;99.90;;;;;;5075335;28;19943;-85
2022/09/25 06:28:04;;;;;;;;;;;12.20;99.90;;;;;;5070092;28;19928;-82
2022/09/25 06:30:35;;;;;;;;;;;12.20;99.90;;;;;;5082444;28;19986;-83
2022/09/25 06:33:05;;;;;;;;;;;12.20;99.90;;;;;;5093110;28;19983;-87
2022/09/25 06:35:33;;;;;;;;;;;12.20;99.90;;;;;;5084838;28;20378;-82
2022/09/25 06:38:00;;;;;;;;;;;12.20;99.90;;;;;;5095700;28;19990;-87
2022/09/25 06:40:27;;;;;;;;;;;12.20;99.90;;;;;;5069829;28;19924;-87
2022/09/25 06:42:57;;;;;;;;;;;12.20;99.90;;;;;;5095392;28;19924;-86
2022/09/25 06:45:25;;;;;;;;;;;12.20;99.90;;;;;;5074130;28;20454;-86
2022/09/25 06:47:56;;;;;;;;;;;12.20;99.90;;;;;;5101655;28;19954;-85
2022/09/25 06:50:24;;;;;;;;;;;12.20;99.90;;;;;;5089645;28;20015;-83
2022/09/25 06:52:51;;;;;;;;;;;12.20;99.90;;;;;;5088270;28;19925;-88
2022/09/25 06:55:18;;;;;;;;;;;12.20;99.90;;;;;;5093703;28;19928;-88
2022/09/25 06:57:45;;;;;;;;;;;12.10;99.90;;;;;;5071126;28;19924;-89
2022/09/25 07:00:13;;;;;;;;;;;12.10;99.90;;;;;;5074849;28;20013;-85
2022/09/25 07:05:30;;;;;;;;;;;12.10;99.90;;;;;;5077610;28;19997;-89
2022/09/25 07:07:57;;;;;;;;;;;12.10;99.90;;;;;;5083957;28;19931;-85
2022/09/25 07:10:24;;;;;;;;;;;12.10;99.90;;;;;;5073899;28;20119;-84
2022/09/25 07:12:52;;;;;;;;;;;12.10;99.90;;;;;;5081777;28;19970;-84
2022/09/25 07:15:19;;;;;;;;;;;12.10;99.90;;;;;;5064313;28;20031;-84
2022/09/25 07:17:46;;;;;;;;;;;12.10;99.90;;;;;;5076401;28;22607;-87
2022/09/25 07:20:14;;;;;;;;;;;12.10;99.90;;;;;;5034730;28;20015;-86
2022/09/25 07:22:43;;;;;;;;;;;12.10;99.90;;;;;;5056400;28;19938;-87
2022/09/25 07:25:11;;;;;;;;;;;12.10;99.90;;;;;;5061420;28;19927;-87
2022/09/25 07:27:38;;;;;;;;;;;12.10;99.90;;;;;;5077738;28;19924;-86
2022/09/25 07:30:06;;;;;;;;;;;12.10;99.90;;;;;;5068693;28;19925;-85
2022/09/25 07:32:34;;;;;;;;;;;12.10;99.90;;;;;;5060675;28;19924;-85
2022/09/25 07:35:02;;;;;;;;;;;12.10;99.90;;;;;;5076368;28;19928;-86
2022/09/25 07:37:30;;;;;;;;;;;12.10;99.90;;;;;;5083244;28;20025;-85
2022/09/25 07:39:58;;;;;;;;;;;12.10;99.90;;;;;;5092482;27;19924;-86
2022/09/25 07:42:26;;;;;;;;;;;12.20;99.90;;;;;;5057748;28;20600;-85
2022/09/25 07:44:53;;;;;;;;;;;12.20;99.90;;;;;;5095723;27;20344;-85
2022/09/25 07:47:20;;;;;;;;;;;12.20;99.90;;;;;;5080582;28;19928;-86
2022/09/25 07:49:47;;;;;;;;;;;12.20;99.90;;;;;;5072024;28;19993;-85
2022/09/25 07:52:14;;;;;;;;;;;12.20;99.90;;;;;;5072584;28;19932;-86
2022/09/25 07:54:41;;;;;;;;;;;12.20;99.90;;;;;;5074357;28;19924;-86
2022/09/25 07:57:12;;;;;;;;;;;12.20;99.90;;;;;;5066222;28;19928;-86
2022/09/25 07:59:42;;;;;;;;;;;12.20;99.90;;;;;;5075824;28;19930;-86
2022/09/25 08:02:10;;;;;;;;;;;12.20;99.90;;;;;;5079368;28;20508;-84
2022/09/25 08:04:37;;;;;;;;;;;12.20;99.90;;;;;;5067416;28;19931;-85
2022/09/25 08:07:05;;;;;;;;;;;12.30;99.90;;;;;;5076579;28;20057;-86
2022/09/25 08:09:32;;;;;;;;;;;12.30;99.90;;;;;;5058921;28;20156;-86
2022/09/25 08:11:59;;;;;;;;;;;12.20;99.90;;;;;;5077611;28;20083;-86
2022/09/25 08:14:29;;;;;;;;;;;12.30;99.90;;;;;;5095923;27;19928;-84
2022/09/25 08:16:57;;;;;;;;;;;12.30;99.90;;;;;;5089375;28;19931;-85
2022/09/25 08:19:26;;;;;;;;;;;12.30;99.90;;;;;;5062040;28;19963;-85
2022/09/25 08:21:54;;;;;;;;;;;12.40;99.90;;;;;;5062753;28;20382;-84
2022/09/25 08:24:21;;;;;;;;;;;12.40;99.90;;;;;;5059680;28;19938;-85
2022/09/25 08:26:49;;;;;;;;;;;12.40;99.90;;;;;;5062721;28;21343;-85
2022/09/25 08:29:16;;;;;;;;;;;12.40;99.90;;;;;;5068825;28;19935;-84
2022/09/25 08:31:45;;;;;;;;;;;12.40;99.90;;;;;;5077975;28;19924;-85
2022/09/25 08:34:13;;;;;;;;;;;12.40;99.90;;;;;;5064986;28;20031;-85
2022/09/25 08:36:40;;;;;;;;;;;12.40;99.90;;;;;;5059594;28;19936;-85
2022/09/25 08:39:07;;;;;;;;;;;12.40;99.90;;;;;;5081730;28;19928;-86
2022/09/25 08:41:37;;;;;;;;;;;12.40;99.90;;;;;;5078999;28;19928;-85
2022/09/25 08:44:06;;;;;;;;;;;12.40;99.90;;;;;;5076086;28;20447;-85
2022/09/25 08:49:29;;;;;;;;;;;12.50;99.90;;;;;;5080633;28;19920;-85
2022/09/25 08:52:00;;;;;;;;;;;12.50;99.90;;;;;;5071056;28;20011;-85
2022/09/25 08:54:27;;;;;;;;;;;12.50;99.90;;;;;;5084406;28;20042;-86
2022/09/25 08:56:56;;;;;;;;;;;12.50;99.90;;;;;;5077864;28;19928;-84
2022/09/25 08:59:25;;;;;;;;;;;12.50;99.90;;;;;;5058077;28;19971;-84
2022/09/25 09:01:55;;;;;;;;;;;12.50;99.90;;;;;;5068896;28;19980;-84
2022/09/25 09:04:25;;;;;;;;;;;12.50;99.90;;;;;;5062155;28;19931;-84
2022/09/25 09:06:55;;;;;;;;;;;12.60;99.90;;;;;;5074756;28;19939;-85
2022/09/25 09:09:26;;;;;;;;;;;12.60;99.90;;;;;;5058919;28;19939;-84
2022/09/25 09:11:56;;;;;;;;;;;12.60;99.90;;;;;;5074632;28;19989;-83
2022/09/25 09:14:26;;;;;;;;;;;12.60;99.90;;;;;;5079842;28;20279;-84
2022/09/25 09:16:56;;;;;;;;;;;12.60;99.90;;;;;;5080395;28;20451;-84
2022/09/25 09:19:22;;;;;;;;;;;12.60;99.90;;;;;;5082280;28;19941;-84
2022/09/25 09:21:54;;;;;;;;;;;12.60;99.90;;;;;;5058840;28;19939;-83
2022/09/25 09:24:25;;;;;;;;;;;12.70;99.90;;;;;;5078019;28;19932;-84
2022/09/25 09:26:58;;;;;;;;;;;12.70;99.90;;;;;;5077114;28;19928;-84
2022/09/25 09:29:31;;;;;;;;;;;12.70;99.90;;;;;;5080105;28;19924;-84
2022/09/25 09:32:03;;;;;;;;;;;12.70;99.90;;;;;;5081627;28;19934;-84
2022/09/25 09:34:40;;;;;;;;;;;12.70;99.90;;;;;;5079732;28;20447;-84
2022/09/25 09:37:14;;;;;;;;;;;12.70;99.90;;;;;;5089890;28;19924;-81
2022/09/25 09:39:48;;;;;;;;;;;12.70;99.90;;;;;;5102046;27;20026;-84
2022/09/25 09:42:17;;;;;;;;;;;12.80;99.90;;;;;;5087087;28;19924;-84
2022/09/25 09:44:53;;;;;;;;;;;12.80;99.90;;;;;;5084291;28;20097;-83
2022/09/25 09:47:31;;;;;;;;;;;12.80;99.90;;;;;;5078098;28;20415;-84
2022/09/25 09:50:00;;;;;;;;;;;12.80;99.90;;;;;;5080603;28;19936;-84
2022/09/25 09:52:33;;;;;;;;;;;12.80;99.90;;;;;;5059794;28;20058;-84
2022/09/25 09:55:06;;;;;;;;;;;12.90;99.90;;;;;;5084549;28;20113;-84
2022/09/25 09:57:37;;;;;;;;;;;12.90;99.90;;;;;;5074268;28;19932;-84
2022/09/25 10:00:05;;;;;;;;;;;12.90;99.90;;;;;;5072468;28;19939;-85
2022/09/25 10:02:40;;;;;;;;;;;12.90;99.90;;;;;;5068629;28;20417;-84
2022/09/25 10:05:09;;;;;;;;;;;12.90;99.90;;;;;;5077968;28;19933;-85
2022/09/25 10:07:38;;;;;;;;;;;13.00;99.90;;;;;;5034771;28;19932;-83
2022/09/25 10:10:11;;;;;;;;;;;13.00;99.90;;;;;;5060271;28;20542;-83
2022/09/25 10:12:39;;;;;;;;;;;13.00;99.90;;;;;;5076041;28;20376;-84
2022/09/25 10:15:14;;;;;;;;;;;13.10;99.90;;;;;;5073604;28;19939;-84
2022/09/25 10:17:41;;;;;;;;;;;13.10;99.90;;;;;;5073631;28;19959;-84
2022/09/25 10:20:14;;;;;;;;;;;13.10;99.90;;;;;;5085257;27;20356;-83
2022/09/25 10:22:43;;;;;;;;;;;13.10;99.90;;;;;;5055729;28;19935;-83
2022/09/25 10:25:12;;;;;;;;;;;13.10;99.90;;;;;;5090109;27;19932;-83
2022/09/25 10:27:44;;;;;;;;;;;13.10;99.90;;;;;;5072395;28;19928;-82
2022/09/25 10:30:21;;;;;;;;;;;13.20;99.90;;;;;;5057352;28;19981;-85
2022/09/25 10:32:55;;;;;;;;;;;13.20;99.90;;;;;;5057565;28;19999;-83
2022/09/25 10:35:24;;;;;;;;;;;13.20;99.90;;;;;;5060243;28;19987;-83
2022/09/25 10:37:52;;;;;;;;;;;13.20;99.90;;;;;;5059691;28;19932;-83
2022/09/25 10:40:28;;;;;;;;;;;13.30;99.90;;;;;;5075238;28;20295;-83
2022/09/25 10:43:06;;;;;;;;;;;13.30;99.90;;;;;;5067284;28;19978;-84
2022/09/25 10:45:34;;;;;;;;;;;13.30;99.90;;;;;;5071235;28;19968;-84
2022/09/25 10:51:06;;;;;;;;;;;13.40;99.90;;;;;;5018712;28;19925;-83
2022/09/25 10:53:33;;;;;;;;;;;13.40;99.90;;;;;;5047305;28;19932;-84
2022/09/25 10:56:03;;;;;;;;;;;13.40;99.90;;;;;;5067505;28;20349;-83
2022/09/25 10:58:33;;;;;;;;;;;13.50;99.90;;;;;;5067636;28;19928;-84
2022/09/25 11:01:02;;;;;;;;;;;13.50;99.90;;;;;;5085223;28;19958;-84
2022/09/25 11:03:33;;;;;;;;;;;13.50;99.90;;;;;;5080496;28;19963;-84
2022/09/25 11:06:02;;;;;;;;;;;13.50;99.90;;;;;;5079715;28;20423;-84
2022/09/25 11:08:30;;;;;;;;;;;13.50;99.90;;;;;;5061554;28;19927;-84
2022/09/25 11:10:58;;;;;;;;;;;13.60;99.90;;;;;;5064108;28;20027;-84
2022/09/25 11:13:28;;;;;;;;;;;13.60;99.90;;;;;;5067978;28;19924;-84
2022/09/25 11:15:57;;;;;;;;;;;13.60;99.90;;;;;;5077780;28;19932;-83
2022/09/25 11:18:36;;;;;;;;;;;13.60;99.90;;;;;;5079854;28;19932;-84
2022/09/25 11:21:04;;;;;;;;;;;13.60;99.90;;;;;;5078190;28;20266;-81
2022/09/25 11:23:35;;;;;;;;;;;13.70;99.90;;;;;;5076654;28;19928;-85
2022/09/25 11:26:05;;;;;;;;;;;13.70;99.90;;;;;;5062355;28;20275;-84
2022/09/25 11:28:36;;;;;;;;;;;13.70;99.90;;;;;;5069672;28;19932;-84
2022/09/25 11:31:09;;;;;;;;;;;13.70;99.90;;;;;;5077276;28;19932;-84
2022/09/25 11:33:41;;;;;;;;;;;13.70;99.90;;;;;;5076725;28;19967;-84
2022/09/25 11:36:13;;;;;;;;;;;13.80;99.90;;;;;;5068266;28;19928;-86
2022/09/25 11:41:30;;;;;;;;;;;13.90;99.90;;;;;;5083338;28;19920;-85
2022/09/25 11:44:06;;;;;;;;;;;13.90;99.90;;;;;;5078703;28;19931;-85
2022/09/25 11:46:38;;;;;;;;;;;13.90;99.90;;;;;;5071000;28;20049;-85
2022/09/25 11:49:12;;;;;;;;;;;14.00;99.90;;;;;;5066169;28;20033;-84
2022/09/25 11:51:55;;;;;;;;;;;14.00;99.90;;;;;;5051335;28;21254;-87
2022/09/25 11:54:27;;;;;;;;;;;14.00;99.90;;;;;;5063112;28;19936;-84
2022/09/25 11:56:57;;;;;;;;;;;14.00;99.90;;;;;;5075348;28;19928;-85
2022/09/25 11:59:37;;;;;;;;;;;14.00;99.90;;;;;;5107990;27;20006;-85
2022/09/25 12:02:13;;;;;;;;;;;14.00;99.90;;;;;;5096881;28;19932;-84
2022/09/25 12:04:55;;;;;;;;;;;14.10;99.90;;;;;;5097848;28;20301;-84
2022/09/25 12:07:31;;;;;;;;;;;14.00;99.90;;;;;;5078694;28;20009;-85
2022/09/25 12:10:11;;;;;;;;;;;14.10;99.90;;;;;;5081053;28;20642;-84
2022/09/25 12:12:40;;;;;;;;;;;14.10;99.90;;;;;;5100213;28;20332;-84
2022/09/25 12:15:16;;;;;;;;;;;14.10;99.90;;;;;;5093468;28;19928;-83
2022/09/25 12:17:46;;;;;;;;;;;14.20;99.90;;;;;;5084121;28;19970;-85
2022/09/25 12:20:18;;;;;;;;;;;14.20;99.90;;;;;;5076178;28;19931;-85
2022/09/25 12:22:50;;;;;;;;;;;14.20;99.90;;;;;;5084047;28;20013;-86
2022/09/25 12:25:25;;;;;;;;;;;14.20;99.90;;;;;;5086661;28;19939;-84
2022/09/25 12:27:55;;;;;;;;;;;14.20;99.90;;;;;;5071203;28;19975;-83
2022/09/25 12:30:27;;;;;;;;;;;14.30;99.90;;;;;;5076769;28;19928;-84
2022/09/25 12:32:59;;;;;;;;;;;14.30;99.90;;;;;;5101715;27;19950;-83
2022/09/25 12:35:32;;;;;;;;;;;14.30;99.90;;;;;;5086426;28;19924;-85
2022/09/25 12:38:01;;;;;;;;;;;14.30;99.90;;;;;;5094443;28;19928;-85
2022/09/25 12:40:30;;;;;;;;;;;14.30;99.90;;;;;;5090166;28;19928;-83
2022/09/25 12:42:58;;;;;;;;;;;14.30;99.90;;;;;;5087689;28;19925;-83
2022/09/25 12:45:30;;;;;;;;;;;14.30;99.90;;;;;;5090053;28;19924;-83
2022/09/25 12:48:01;;;;;;;;;;;14.30;99.90;;;;;;5075907;28;20044;-85
2022/09/25 12:50:30;;;;;;;;;;;14.30;99.90;;;;;;5091478;28;20328;-85
2022/09/25 12:52:59;;;;;;;;;;;14.40;99.90;;;;;;5072265;28;20037;-84
2022/09/25 12:55:30;;;;;;;;;;;14.40;99.90;;;;;;5086276;28;19924;-87
2022/09/25 12:58:02;;;;;;;;;;;14.40;99.90;;;;;;5087435;28;20466;-84
2022/09/25 13:00:32;;;;;;;;;;;14.40;99.90;;;;;;5075458;28;19931;-85
2022/09/25 13:03:02;;;;;;;;;;;14.40;99.90;;;;;;5088593;28;19933;-84
2022/09/25 13:05:32;;;;;;;;;;;14.40;99.90;;;;;;5097599;28;20399;-84
2022/09/25 13:08:13;;;;;;;;;;;14.50;99.90;;;;;;5082276;28;19932;-83
2022/09/25 13:10:43;;;;;;;;;;;14.50;99.90;;;;;;5078065;28;19959;-86
2022/09/25 13:13:11;;;;;;;;;;;14.50;99.90;;;;;;5091928;28;19988;-85
2022/09/25 13:15:41;;;;;;;;;;;14.50;99.90;;;;;;5078610;28;19928;-86
2022/09/25 13:18:25;;;;;;;;;;;14.50;99.90;;;;;;5088904;28;19924;-84
2022/09/25 13:20:52;;;;;;;;;;;14.50;99.90;;;;;;5097484;28;19932;-84
2022/09/25 13:23:34;;;;;;;;;;;14.60;99.90;;;;;;5091244;28;19932;-84
2022/09/25 13:26:08;;;;;;;;;;;14.60;99.90;;;;;;5095819;28;19946;-84
2022/09/25 13:28:37;;;;;;;;;;;14.60;99.90;;;;;;5102489;27;19947;-84
2022/09/25 13:31:08;;;;;;;;;;;14.60;99.90;;;;;;5094090;28;20287;-83
2022/09/25 13:33:38;;;;;;;;;;;14.60;99.90;;;;;;5087712;28;20374;-84
2022/09/25 13:36:09;;;;;;;;;;;14.60;99.90;;;;;;5098932;28;19966;-84
2022/09/25 13:41:35;;;;;;;;;;;14.70;99.90;;;;;;5018609;28;19925;-85
2022/09/25 13:44:20;;;;;;;;;;;14.80;99.90;;;;;;5077661;28;21399;-83
2022/09/25 13:46:48;;;;;;;;;;;14.70;99.90;;;;;;5087425;28;19924;-84
2022/09/25 13:49:33;;;;;;;;;;;14.80;99.90;;;;;;5088385;28;19955;-83
2022/09/25 13:52:00;;;;;;;;;;;14.80;99.90;;;;;;5073008;28;20412;-84
2022/09/25 13:54:28;;;;;;;;;;;14.80;99.90;;;;;;5093465;28;19924;-83
2022/09/25 13:56:55;;;;;;;;;;;14.80;99.90;;;;;;5071239;28;20511;-82
2022/09/25 13:59:23;;;;;;;;;;;14.80;99.90;;;;;;5088666;28;19960;-84
2022/09/25 14:01:53;;;;;;;;;;;14.80;99.90;;;;;;5095522;28;19970;-85
2022/09/25 14:04:28;;;;;;;;;;;14.90;99.90;;;;;;5096859;28;19924;-85
2022/09/25 14:07:03;;;;;;;;;;;14.80;99.90;;;;;;5078964;28;20309;-84
2022/09/25 14:09:30;;;;;;;;;;;14.90;99.90;;;;;;5091188;28;20324;-84
2022/09/25 14:12:02;;;;;;;;;;;14.90;99.90;;;;;;5081614;28;19935;-83
2022/09/25 14:14:30;;;;;;;;;;;14.90;99.90;;;;;;5102697;28;19924;-83
2022/09/25 14:16:58;;;;;;;;;;;14.90;99.90;;;;;;5091429;28;19934;-85
2022/09/25 14:19:27;;;;;;;;;;;14.90;99.90;;;;;;5093417;28;20002;-85
2022/09/25 14:21:54;;;;;;;;;;;14.90;99.90;;;;;;5067169;28;19964;-84
2022/09/25 14:24:24;;;;;;;;;;;14.90;99.90;;;;;;5092688;28;19969;-83
2022/09/25 14:26:52;;;;;;;;;;;14.90;99.90;;;;;;5071957;28;19928;-83
2022/09/25 14:29:22;;;;;;;;;;;14.90;99.90;;;;;;5114656;27;20011;-84
2022/09/25 14:31:52;;;;;;;;;;;14.90;99.90;;;;;;5076793;28;20674;-83
2022/09/25 14:34:36;;;;;;;;;;;14.90;99.90;;;;;;5089312;28;19932;-85
2022/09/25 14:37:10;;;;;;;;;;;15.00;99.90;;;;;;5091561;28;20019;-84
2022/09/25 14:39:38;;;;;;;;;;;15.00;99.90;;;;;;5077135;28;20026;-83
2022/09/25 14:42:17;;;;;;;;;;;15.00;99.90;;;;;;5089154;28;19925;-84
2022/09/25 14:44:56;;;;;;;;;;;15.00;99.90;;;;;;5092727;28;19963;-84
2022/09/25 14:47:26;;;;;;;;;;;15.00;99.90;;;;;;5094653;28;19932;-84
2022/09/25 14:49:55;;;;;;;;;;;15.00;99.90;;;;;;5095958;28;19928;-82
2022/09/25 14:52:23;;;;;;;;;;;15.00;99.90;;;;;;5086645;28;19977;-83